LIRG

Details ICAO LIRG
Name GUIDONIA
Region Italy
Timezone Europe/Rome (UTC+2.0)
Plans Departing 2
Arriving 4
Stats Elevation 289 ft / 88 m (AMSL)
Location 41.990697° 12.738594°
Runways 2
Magnetic Variation 3.140° E
Sunrise 2018-05-24 03:42:27 UTC / 2018-05-24 05:42:27 Local
Sunset 2018-05-24 18:32:10 UTC / 2018-05-24 20:32:10 Local
Advertisement - Login to hide

Runways

ID Width Length Bearing (true) Bearing (mag) Surface Threshold Offset Overrun Length
04 197 ft / 60 m 3,937 ft / 1,200 m 34.84° 31.70° Grass 0 ft / 0 m 0 ft / 0 m
18 98 ft / 30 m 4,830 ft / 1,472 m 181.06° 177.92° Asphalt 0 ft / 0 m 390 ft / 119 m
22 197 ft / 60 m 3,937 ft / 1,200 m 214.85° 211.71° Grass 0 ft / 0 m 0 ft / 0 m
36 98 ft / 30 m 4,830 ft / 1,472 m 1.06° 357.92° Asphalt 0 ft / 0 m 0 ft / 0 m

Map

Weather


0- 5 10 15 20 25 30 35+ Temperature / ° C

Clouds and Precipitation
Forecast for 2018-05-24 12:00 UTC. Updated 5 hours ago

Ground ~20,000 ft ~40,000 ft Winds

METAR

LIRG 241455Z 22009KT 9999 SCT033 25/17 Q1015

TAF

Not found

Frequencies

Tower 122.20 MHz TWR
Tower 122.10 MHz TWR
Warning: Do not use this data for real-world aviation or navigation. No guarantee of current accuracy is given.